Time;durP1;ratioP1;P1;durP2;ratioP2;P2;SDS_P1;SDS_P2;PMS_P1;PMS_P2;Temp;Humidity;BMP_temperature;BMP_pressure;BME280_temperature;BME280_humidity;BME280_pressure;Samples;Min_cycle;Max_cycle;Signal;HPM_P1;HPM_P2
2022/03/12 00:01:26;;;;;;;12.73;6.43;;;;;;;6.02;60.33;102057.16;4897784;29;20044;-68
2022/03/12 00:03:55;;;;;;;10.77;6.00;;;;;;;6.04;60.00;102057.78;4898092;29;20506;-68
2022/03/12 00:06:24;;;;;;;15.57;6.60;;;;;;;6.01;60.80;102057.34;4896985;29;20063;-68
2022/03/12 00:08:55;;;;;;;13.43;7.10;;;;;;;5.92;60.97;102056.75;4897586;29;20538;-68
2022/03/12 00:11:25;;;;;;;11.10;6.53;;;;;;;5.92;61.09;102059.47;4897992;29;20519;-68
2022/03/12 00:13:54;;;;;;;12.57;6.72;;;;;;;5.90;61.24;102061.53;4897435;29;20052;-68
2022/03/12 00:16:23;;;;;;;14.80;9.05;;;;;;;5.83;61.23;102060.72;4898418;29;20416;-68
2022/03/12 00:18:56;;;;;;;10.98;6.93;;;;;;;5.81;62.00;102058.19;4897187;29;20076;-68
2022/03/12 00:21:33;;;;;;;18.20;7.63;;;;;;;5.88;61.89;102067.16;4897297;29;20060;-68
2022/03/12 00:24:04;;;;;;;10.82;6.85;;;;;;;5.83;61.43;102058.00;4898328;29;20052;-68
2022/03/12 00:26:33;;;;;;;11.80;7.38;;;;;;;5.84;61.50;102062.38;4897613;29;20044;-69
2022/03/12 00:29:01;;;;;;;11.05;7.03;;;;;;;5.92;62.22;102054.84;4897740;29;20411;-68
2022/03/12 00:31:29;;;;;;;13.75;7.57;;;;;;;5.85;62.04;102059.47;4896237;29;20063;-68
2022/03/12 00:33:57;;;;;;;12.35;7.20;;;;;;;5.81;62.08;102055.47;4897584;29;20412;-69
2022/03/12 00:36:25;;;;;;;14.25;7.85;;;;;;;5.76;62.05;102055.28;4897064;29;20052;-68
2022/03/12 00:38:53;;;;;;;11.23;6.90;;;;;;;5.72;61.86;102054.03;4897491;29;20127;-69
2022/03/12 00:41:21;;;;;;;12.18;6.90;;;;;;;5.70;62.17;102064.25;4896802;29;20053;-68
2022/03/12 00:43:49;;;;;;;14.23;6.97;;;;;;;5.62;61.74;102066.16;4897370;29;20044;-68
2022/03/12 00:46:17;;;;;;;12.13;6.65;;;;;;;5.71;61.41;102057.81;4897554;29;20056;-68
2022/03/12 00:48:44;;;;;;;11.93;6.72;;;;;;;5.71;61.81;102046.94;4896700;29;20053;-68
2022/03/12 00:51:13;;;;;;;10.63;7.13;;;;;;;5.63;62.81;102061.56;4896799;29;20060;-68
2022/03/12 00:53:41;;;;;;;11.60;7.20;;;;;;;5.59;62.84;102061.16;4897218;29;20056;-68
2022/03/12 00:56:09;;;;;;;10.73;6.80;;;;;;;5.50;62.52;102048.84;4897312;29;20056;-68
2022/03/12 00:58:38;;;;;;;17.88;7.25;;;;;;;5.48;63.22;102054.47;4895153;29;20060;-68
2022/03/12 01:01:06;;;;;;;13.73;7.63;;;;;;;5.47;63.07;102057.41;4896976;29;20055;-68
2022/03/12 01:03:34;;;;;;;12.13;6.60;;;;;;;5.47;63.05;102051.97;4896616;29;20060;-69
2022/03/12 01:06:04;;;;;;;11.88;6.53;;;;;;;5.42;62.92;102049.88;4893745;29;20049;-69
2022/03/12 01:08:34;;;;;;;11.35;6.70;;;;;;;5.42;62.81;102049.06;4896701;29;20861;-69
2022/03/12 01:11:07;;;;;;;13.38;6.70;;;;;;;5.40;62.33;102049.25;4896347;29;20072;-69
2022/03/12 01:13:35;;;;;;;10.87;6.60;;;;;;;5.33;62.79;102043.00;4897294;29;20070;-69
2022/03/12 01:16:05;;;;;;;10.55;6.43;;;;;;;5.34;62.60;102039.22;4897327;29;20301;-70
2022/03/12 01:18:38;;;;;;;14.00;6.72;;;;;;;5.38;62.59;102035.88;4896815;29;20051;-70
2022/03/12 01:21:10;;;;;;;11.63;6.80;;;;;;;5.38;63.68;102048.63;4877868;29;20065;-69
2022/03/12 01:23:38;;;;;;;13.32;7.63;;;;;;;5.34;64.26;102041.94;4895957;29;20658;-69
2022/03/12 01:26:06;;;;;;;14.20;7.97;;;;;;;5.33;63.72;102038.38;4892975;29;20048;-69
2022/03/12 01:28:35;;;;;;;15.65;8.50;;;;;;;5.25;64.05;102033.16;4895222;29;20051;-69
2022/03/12 01:31:03;;;;;;;18.30;8.25;;;;;;;5.24;64.19;102036.94;4895529;29;20041;-69
2022/03/12 01:33:31;;;;;;;18.90;8.30;;;;;;;5.22;64.72;102033.56;4895975;29;20056;-69
2022/03/12 01:35:59;;;;;;;13.90;8.60;;;;;;;5.18;65.02;102035.88;4894950;29;20504;-69
2022/03/12 01:38:31;;;;;;;17.55;8.60;;;;;;;5.10;65.86;102036.91;4893807;29;20408;-69
2022/03/12 01:41:03;;;;;;;18.70;8.93;;;;;;;5.11;65.90;102025.03;4895529;29;20407;-69
2022/03/12 01:43:32;;;;;;;18.15;9.63;;;;;;;4.95;66.69;102028.13;4896998;29;20434;-69
2022/03/12 01:46:01;;;;;;;18.85;9.48;;;;;;;4.91;66.95;102026.88;4897169;29;20045;-69
2022/03/12 01:48:30;;;;;;;16.55;9.82;;;;;;;4.79;67.94;102021.22;4900155;29;20075;-69
2022/03/12 01:50:58;;;;;;;16.35;9.18;;;;;;;4.74;68.30;102023.72;4899925;29;20057;-69
2022/03/12 01:53:26;;;;;;;16.00;9.75;;;;;;;4.64;68.53;102010.53;4900896;29;20068;-69
2022/03/12 01:55:56;;;;;;;22.88;9.75;;;;;;;4.73;68.46;102014.72;4899532;29;20048;-69
2022/03/12 01:58:24;;;;;;;17.17;9.63;;;;;;;4.64;68.46;102007.84;4899789;29;20060;-69
2022/03/12 02:00:57;;;;;;;16.67;9.88;;;;;;;4.62;69.03;102012.59;4898729;29;20057;-69
2022/03/12 02:03:32;;;;;;;18.90;9.82;;;;;;;4.56;69.61;102014.28;4899700;29;20067;-69
2022/03/12 02:06:00;;;;;;;17.77;9.77;;;;;;;4.59;69.55;102013.03;4899450;29;20052;-69
2022/03/12 02:08:29;;;;;;;22.38;9.63;;;;;;;4.57;70.01;102016.78;4900637;29;20067;-69
2022/03/12 02:10:59;;;;;;;18.88;10.05;;;;;;;4.65;69.27;102013.03;4899485;29;20055;-69
2022/03/12 02:13:29;;;;;;;23.77;10.80;;;;;;;4.59;68.88;102013.03;4900136;29;20421;-69
2022/03/12 02:16:08;;;;;;;17.67;10.05;;;;;;;4.57;69.61;102014.06;4900248;29;20045;-69
2022/03/12 02:18:38;;;;;;;16.98;9.55;;;;;;;4.57;69.81;102010.50;4899611;29;20499;-69
2022/03/12 02:21:06;;;;;;;16.17;9.85;;;;;;;4.56;69.87;102012.38;4899745;29;20052;-69
2022/03/12 02:23:48;;;;;;;20.58;10.80;;;;;;;4.53;70.06;102012.81;4899382;29;20052;-69
2022/03/12 02:26:16;;;;;;;21.48;10.48;;;;;;;4.53;69.73;102017.38;4900246;29;20056;-69
2022/03/12 02:28:45;;;;;;;22.40;11.38;;;;;;;4.43;70.39;102015.06;4900043;29;20044;-69
2022/03/12 02:31:15;;;;;;;20.08;10.82;;;;;;;4.39;71.23;102024.63;4899848;29;20056;-69
2022/03/12 02:33:44;;;;;;;20.63;10.30;;;;;;;4.38;70.73;102017.53;4899828;29;20044;-69
2022/03/12 02:36:20;;;;;;;21.95;10.60;;;;;;;4.36;71.14;102011.50;4899919;29;20049;-69
2022/03/12 02:38:49;;;;;;;21.73;10.52;;;;;;;4.36;71.32;102008.78;4899723;29;20045;-70
2022/03/12 02:41:20;;;;;;;21.23;11.93;;;;;;;4.38;71.19;102017.53;4897697;29;20060;-69
2022/03/12 02:43:49;;;;;;;19.88;10.23;;;;;;;4.39;71.60;102008.34;4898849;29;20423;-69
2022/03/12 02:46:20;;;;;;;20.00;10.75;;;;;;;4.47;70.70;102002.78;4899900;29;20052;-69
2022/03/12 02:48:52;;;;;;;22.23;11.05;;;;;;;4.46;70.40;102013.81;4899349;29;20400;-69
2022/03/12 02:51:22;;;;;;;19.40;10.60;;;;;;;4.49;70.83;102010.72;4899489;29;20071;-69
2022/03/12 02:53:56;;;;;;;24.98;11.50;;;;;;;4.52;70.01;102004.88;4899624;29;20052;-69
2022/03/12 02:56:24;;;;;;;18.20;9.50;;;;;;;4.67;69.66;102010.13;4897974;29;20049;-69
2022/03/12 02:58:52;;;;;;;18.10;10.50;;;;;;;4.72;69.42;102007.63;4898153;29;20044;-69
2022/03/12 03:01:22;;;;;;;18.50;9.52;;;;;;;4.69;69.77;102008.03;4886040;29;20084;-69
2022/03/12 03:03:53;;;;;;;16.17;8.30;;;;;;;4.67;69.44;102004.69;4899675;29;20064;-69
2022/03/12 03:06:22;;;;;;;17.77;8.68;;;;;;;4.71;69.37;102016.81;4899282;29;20047;-69
2022/03/12 03:08:50;;;;;;;13.27;8.73;;;;;;;4.76;70.00;102010.75;4898074;29;20056;-69
2022/03/12 03:11:19;;;;;;;17.83;9.43;;;;;;;4.77;69.09;102016.00;4898568;29;20059;-69
2022/03/12 03:13:47;;;;;;;18.40;8.82;;;;;;;4.75;69.13;102011.81;4898785;29;20052;-69
2022/03/12 03:16:21;;;;;;;15.65;9.18;;;;;;;4.75;68.55;102007.25;4899166;29;20040;-68
2022/03/12 03:18:53;;;;;;;19.25;8.27;;;;;;;4.74;67.99;102013.69;4898668;29;20123;-69
2022/03/12 03:21:24;;;;;;;15.40;8.65;;;;;;;4.77;67.44;102007.84;4897951;29;20052;-69
2022/03/12 03:23:54;;;;;;;17.05;8.60;;;;;;;4.76;66.81;102008.91;4899135;29;20044;-69
2022/03/12 03:26:33;;;;;;;17.73;8.57;;;;;;;4.78;66.53;102011.38;4899021;29;20079;-69
2022/03/12 03:29:02;;;;;;;18.20;9.07;;;;;;;4.76;67.03;102008.06;4898906;29;20071;-69
2022/03/12 03:31:30;;;;;;;17.73;8.82;;;;;;;4.79;66.83;102008.47;4899061;29;20045;-69
2022/03/12 03:33:58;;;;;;;15.93;9.55;;;;;;;4.73;67.00;101998.44;4899030;29;20511;-69
2022/03/12 03:36:27;;;;;;;15.48;8.20;;;;;;;4.73;66.38;102001.16;4898213;29;20057;-69
2022/03/12 03:38:55;;;;;;;20.50;9.25;;;;;;;4.72;66.31;102004.91;4898755;29;20047;-69
2022/03/12 03:41:22;;;;;;;14.23;8.68;;;;;;;4.79;65.80;102005.75;4898294;29;20498;-69
2022/03/12 03:43:52;;;;;;;16.50;8.73;;;;;;;4.86;65.49;102013.06;4884398;29;20089;-69
2022/03/12 03:46:23;;;;;;;19.92;8.93;;;;;;;4.78;65.17;102006.81;4897898;29;20060;-68
2022/03/12 03:48:53;;;;;;;16.25;9.15;;;;;;;4.73;64.55;102009.28;4897585;29;20048;-69
2022/03/12 03:51:22;;;;;;;21.05;8.63;;;;;;;4.81;64.31;102009.13;4898384;29;20061;-68
2022/03/12 03:53:51;;;;;;;17.08;9.60;;;;;;;4.82;63.91;102024.34;4897777;29;20064;-69
2022/03/12 03:56:20;;;;;;;15.43;9.32;;;;;;;4.79;63.83;102013.09;4898484;29;20040;-69
2022/03/12 03:58:48;;;;;;;16.83;9.57;;;;;;;4.82;64.15;102024.34;4897999;29;20052;-69
2022/03/12 04:01:18;;;;;;;19.98;10.38;;;;;;;4.89;63.23;102018.09;4898607;29;20432;-70
2022/03/12 04:03:49;;;;;;;16.63;9.18;;;;;;;4.76;62.68;102027.03;4898334;29;20044;-68
2022/03/12 04:06:22;;;;;;;20.83;10.05;;;;;;;4.80;62.11;102020.19;4897382;29;20048;-68
2022/03/12 04:08:52;;;;;;;15.90;9.88;;;;;;;4.81;62.10;102019.97;4898208;29;20056;-68
2022/03/12 04:11:24;;;;;;;20.02;10.35;;;;;;;4.77;62.29;102026.84;4897723;29;20518;-68
2022/03/12 04:13:53;;;;;;;18.13;9.90;;;;;;;4.75;61.79;102033.50;4898141;29;20067;-68
2022/03/12 04:16:24;;;;;;;22.45;10.48;;;;;;;4.80;61.53;102023.69;4897241;29;20048;-68
2022/03/12 04:18:53;;;;;;;16.90;9.60;;;;;;;4.82;61.83;102035.19;4897963;29;20052;-68
2022/03/12 04:21:21;;;;;;;19.88;10.27;;;;;;;4.86;61.50;102032.91;4897482;29;20514;-68
2022/03/12 04:23:49;;;;;;;21.98;10.82;;;;;;;4.89;61.12;102029.78;4898139;29;20361;-68
2022/03/12 04:26:17;;;;;;;17.42;9.23;;;;;;;4.87;60.90;102031.03;4897858;29;20134;-68
2022/03/12 04:28:46;;;;;;;23.92;11.13;;;;;;;4.78;61.33;102028.50;4897362;29;20516;-68
2022/03/12 04:31:14;;;;;;;23.33;10.25;;;;;;;4.87;61.27;102031.03;4897867;29;20491;-67
2022/03/12 04:33:42;;;;;;;24.20;10.85;;;;;;;4.86;60.71;102029.34;4897867;29;20052;-68
2022/03/12 04:36:13;;;;;;;22.63;11.60;;;;;;;4.80;61.47;102026.41;4897527;29;20052;-68
2022/03/12 04:38:41;;;;;;;20.17;10.55;;;;;;;4.86;61.50;102024.78;4897419;29;20056;-68
2022/03/12 04:41:12;;;;;;;23.65;12.57;;;;;;;4.93;60.58;102030.19;4897436;29;20053;-68
2022/03/12 04:43:42;;;;;;;22.25;11.63;;;;;;;4.93;60.10;102036.47;4897247;29;20479;-68
2022/03/12 04:46:10;;;;;;;22.25;12.10;;;;;;;4.86;59.59;102030.19;4897504;29;20053;-68
2022/03/12 04:48:38;;;;;;;27.77;13.32;;;;;;;4.88;59.46;102021.88;4896962;29;20049;-68
2022/03/12 04:51:06;;;;;;;26.67;12.82;;;;;;;4.74;59.16;102027.25;4884045;29;20063;-68
2022/03/12 04:53:35;;;;;;;25.30;12.35;;;;;;;4.71;58.75;102022.25;4897474;29;20372;-69
2022/03/12 04:56:04;;;;;;;23.30;12.65;;;;;;;4.70;57.38;102034.13;4896927;29;20051;-68
2022/03/12 04:58:31;;;;;;;24.40;13.63;;;;;;;4.78;56.96;102028.50;4897764;29;20048;-68
2022/03/12 05:00:59;;;;;;;23.63;12.82;;;;;;;4.62;55.78;102026.16;4897275;29;20055;-68
2022/03/12 05:03:28;;;;;;;24.98;13.15;;;;;;;4.66;55.71;102031.00;4897436;29;20408;-68
2022/03/12 05:05:56;;;;;;;21.65;12.27;;;;;;;4.62;55.69;102028.88;4897295;29;20507;-69
2022/03/12 05:08:28;;;;;;;24.88;12.77;;;;;;;4.64;54.07;102033.06;4897172;29;20045;-68
2022/03/12 05:10:57;;;;;;;21.52;12.52;;;;;;;4.59;54.48;102040.97;4897653;29;20063;-68
2022/03/12 05:13:30;;;;;;;;;;;;;;;4.62;53.41;102034.28;4897273;29;20049;-68
2022/03/12 05:16:06;;;;;;;21.52;11.32;;;;;;;4.61;53.48;102043.47;4896732;29;19935;-68
2022/03/12 05:18:41;;;;;;;19.48;10.60;;;;;;;4.60;53.17;102041.81;4896380;29;20496;-68
2022/03/12 05:21:09;;;;;;;21.33;11.40;;;;;;;4.63;53.18;102038.69;4896990;29;20056;-68
2022/03/12 05:23:38;;;;;;;19.60;11.25;;;;;;;4.53;52.73;102044.50;4897224;29;20052;-68
2022/03/12 05:26:06;;;;;;;25.52;12.68;;;;;;;4.54;52.64;102036.16;4897406;29;20064;-68
2022/03/12 05:28:37;;;;;;;22.50;11.35;;;;;;;4.55;52.97;102037.81;4884030;29;20048;-68
2022/03/12 05:31:05;;;;;;;17.48;10.68;;;;;;;4.48;52.66;102038.84;4896668;29;20057;-68
2022/03/12 05:33:35;;;;;;;16.10;9.93;;;;;;;4.51;52.42;102043.88;4896752;29;20368;-68
2022/03/12 05:36:04;;;;;;;22.10;9.73;;;;;;;4.49;52.86;102052.19;4896845;29;20049;-67
2022/03/12 05:38:34;;;;;;;19.30;9.80;;;;;;;4.44;52.31;102049.25;4896469;29;20049;-68
2022/03/12 05:41:10;;;;;;;18.48;10.10;;;;;;;4.37;51.33;102051.94;4896385;29;20052;-68
2022/03/12 05:43:46;;;;;;;15.90;9.60;;;;;;;4.37;52.96;102059.22;4897297;29;20396;-68
2022/03/12 05:46:19;;;;;;;18.15;10.90;;;;;;;4.27;51.78;102063.16;4896186;29;20076;-68
2022/03/12 05:48:48;;;;;;;18.13;9.75;;;;;;;4.29;51.79;102066.50;4897271;29;20061;-68
2022/03/12 05:51:16;;;;;;;16.45;8.57;;;;;;;4.43;50.90;102069.28;4895778;29;20049;-68
2022/03/12 05:53:45;;;;;;;16.48;9.23;;;;;;;4.29;51.42;102073.78;4897110;29;20052;-68
2022/03/12 05:56:13;;;;;;;15.85;9.40;;;;;;;4.24;51.38;102068.13;4894984;29;20079;-68
2022/03/12 05:58:41;;;;;;;20.92;9.18;;;;;;;4.31;51.60;102063.59;4896994;29;20059;-68
2022/03/12 06:01:09;;;;;;;15.40;8.45;;;;;;;4.30;50.91;102067.31;4896143;29;20053;-68
2022/03/12 06:03:38;;;;;;;18.65;9.23;;;;;;;4.21;50.50;102069.38;4896365;29;20076;-68
2022/03/12 06:06:06;;;;;;;18.52;9.13;;;;;;;4.22;50.31;102068.34;4896715;29;20049;-68
2022/03/12 06:08:34;;;;;;;15.48;8.38;;;;;;;4.16;50.55;102078.09;4892244;29;20063;-68
2022/03/12 06:11:04;;;;;;;17.80;8.77;;;;;;;4.29;50.32;102076.50;4895039;29;20075;-68
2022/03/12 06:13:32;;;;;;;15.35;8.35;;;;;;;4.14;51.08;102082.88;4895680;29;20053;-68
2022/03/12 06:16:02;;;;;;;17.70;8.80;;;;;;;4.29;50.98;102079.22;4896210;29;20065;-68
2022/03/12 06:18:35;;;;;;;13.68;8.52;;;;;;;4.27;50.32;102081.28;4896355;29;20064;-69
2022/03/12 06:21:05;;;;;;;17.88;8.73;;;;;;;4.36;50.19;102090.94;4895779;29;20076;-69
2022/03/12 06:23:34;;;;;;;15.05;8.60;;;;;;;4.18;50.64;102086.03;4896312;29;20502;-69
2022/03/12 06:26:03;;;;;;;17.38;9.25;;;;;;;4.19;50.20;102082.28;4896509;29;20052;-69
2022/03/12 06:28:33;;;;;;;15.75;8.73;;;;;;;4.19;49.95;102090.41;4896897;29;20496;-69
2022/03/12 06:31:02;;;;;;;15.63;8.20;;;;;;;4.22;49.70;102084.59;4896937;29;20064;-69
2022/03/12 06:33:31;;;;;;;18.48;9.00;;;;;;;4.15;49.88;102099.97;4897450;29;20060;-69
2022/03/12 06:36:02;;;;;;;12.07;7.88;;;;;;;4.20;49.94;102102.91;4905019;29;20064;-69
2022/03/12 06:38:32;;;;;;;15.57;8.98;;;;;;;4.11;49.66;102104.13;4902527;29;20044;-69
2022/03/12 06:41:01;;;;;;;16.23;8.88;;;;;;;4.12;49.96;102106.66;4898348;29;20317;-69
2022/03/12 06:43:31;;;;;;;15.60;7.78;;;;;;;4.22;49.07;102100.03;4899484;29;20059;-69
2022/03/12 06:46:01;;;;;;;15.27;7.80;;;;;;;4.07;49.08;102113.69;4898550;29;20407;-68
2022/03/12 06:48:32;;;;;;;19.70;8.27;;;;;;;4.11;49.21;102112.25;4897824;29;20060;-69
2022/03/12 06:51:01;;;;;;;13.38;8.35;;;;;;;4.08;49.58;102118.91;4899776;29;20053;-69
2022/03/12 06:53:30;;;;;;;17.75;8.80;;;;;;;4.19;49.42;102122.13;4899417;29;20053;-69
2022/03/12 06:55:58;;;;;;;14.70;8.45;;;;;;;4.07;49.44;102121.81;4897759;29;20059;-69
2022/03/12 06:58:27;;;;;;;14.65;8.65;;;;;;;4.23;49.42;102123.38;4898934;29;20424;-69
2022/03/12 07:00:55;;;;;;;18.52;9.07;;;;;;;4.16;49.04;102123.34;4898224;29;20495;-69
2022/03/12 07:03:24;;;;;;;12.63;7.47;;;;;;;4.15;48.92;102127.06;4899592;29;20515;-70
2022/03/12 07:05:52;;;;;;;14.88;8.43;;;;;;;4.28;48.67;102126.31;4897984;29;20052;-69
2022/03/12 07:08:21;;;;;;;13.57;8.52;;;;;;;4.33;49.09;102125.72;4899161;29;20055;-69
2022/03/12 07:10:49;;;;;;;19.55;9.60;;;;;;;4.26;49.41;102129.22;4899571;29;20049;-71
2022/03/12 07:13:17;;;;;;;14.63;7.90;;;;;;;4.25;48.97;102137.56;4899308;29;20052;-70
2022/03/12 07:15:46;;;;;;;14.35;8.40;;;;;;;4.39;48.42;102133.03;4898921;29;20059;-70
2022/03/12 07:18:14;;;;;;;10.32;7.32;;;;;;;4.49;47.88;102132.72;4899814;29;20048;-70
2022/03/12 07:20:42;;;;;;;14.38;8.63;;;;;;;4.36;48.86;102133.47;4897672;29;20376;-71
2022/03/12 07:23:10;;;;;;;22.42;9.57;;;;;;;4.37;48.04;102140.56;4897382;29;20400;-70
2022/03/12 07:25:38;;;;;;;17.13;8.93;;;;;;;4.51;47.89;102147.75;4898994;29;20059;-70
2022/03/12 07:28:06;;;;;;;17.13;8.90;;;;;;;4.46;47.81;102149.34;4897447;29;20052;-71
2022/03/12 07:30:35;;;;;;;14.35;8.35;;;;;;;4.55;46.92;102165.25;4896192;29;20036;-70
2022/03/12 07:33:03;;;;;;;19.38;8.85;;;;;;;4.50;46.84;102159.59;4893261;29;20056;-70
2022/03/12 07:35:31;;;;;;;15.10;8.82;;;;;;;4.61;46.35;102157.38;4896969;29;20049;-72
2022/03/12 07:37:59;;;;;;;15.43;8.23;;;;;;;4.68;46.42;102158.22;4879648;29;20052;-72
2022/03/12 07:40:30;;;;;;;17.77;8.70;;;;;;;4.69;46.16;102154.47;4860118;29;20057;-71
2022/03/12 07:42:58;;;;;;;14.65;8.48;;;;;;;4.83;45.63;102161.66;4859961;29;20053;-70
2022/03/12 07:45:26;;;;;;;20.33;9.00;;;;;;;5.09;46.39;102164.69;4875798;29;20048;-71
2022/03/12 07:47:55;;;;;;;16.20;9.40;;;;;;;5.13;44.54;102167.81;4878271;29;20068;-71
2022/03/12 07:50:26;;;;;;;18.10;9.95;;;;;;;5.14;44.53;102161.34;4877743;29;20049;-71
2022/03/12 07:52:54;;;;;;;19.38;9.23;;;;;;;5.07;44.56;102166.72;4871043;29;20059;-82
2022/03/12 07:55:23;;;;;;;17.27;9.57;;;;;;;5.24;43.79;102167.22;4869833;29;20492;-82
2022/03/12 07:57:52;;;;;;;19.65;9.85;;;;;;;5.42;45.39;102165.81;4880156;29;20405;-83
2022/03/12 08:00:20;;;;;;;17.90;9.32;;;;;;;5.70;44.56;102164.78;4879730;29;20052;-83
2022/03/12 08:02:49;;;;;;;20.80;9.68;;;;;;;5.62;43.58;102166.66;4864955;29;20051;-83
2022/03/12 08:05:21;;;;;;;19.13;9.68;;;;;;;5.76;44.24;102163.94;4865670;29;20059;-83
2022/03/12 08:07:50;;;;;;;23.35;10.82;;;;;;;5.91;43.46;102167.31;4896161;29;20048;-82
2022/03/12 08:10:18;;;;;;;19.83;9.73;;;;;;;6.07;43.23;102176.13;4898216;29;20052;-83
2022/03/12 08:12:46;;;;;;;18.17;9.10;;;;;;;6.05;42.86;102172.75;4881530;29;20048;-83
2022/03/12 08:15:15;;;;;;;17.85;9.77;;;;;;;5.98;42.45;102178.19;4908982;29;20045;-82
2022/03/12 08:17:45;;;;;;;18.60;10.40;;;;;;;6.04;42.05;102171.94;4896171;29;20048;-83
2022/03/12 08:20:14;;;;;;;15.63;9.05;;;;;;;6.25;41.80;102177.34;4897502;29;20055;-82
2022/03/12 08:22:45;;;;;;;17.45;10.45;;;;;;;5.81;41.44;102169.59;4896412;29;20061;-82
2022/03/12 08:25:14;;;;;;;22.67;10.00;;;;;;;6.03;41.23;102169.41;4894892;29;20861;-81
2022/03/12 08:27:42;;;;;;;16.70;9.27;;;;;;;6.21;41.82;102170.66;4898027;29;20057;-82
2022/03/12 08:30:11;;;;;;;24.05;11.10;;;;;;;6.16;40.80;102169.41;4897652;29;20052;-83
2022/03/12 08:32:40;;;;;;;18.80;9.70;;;;;;;6.24;41.04;102162.91;4903501;29;20055;-83
2022/03/12 08:35:09;;;;;;;19.52;10.05;;;;;;;6.39;40.57;102167.25;4901440;29;20049;-82
2022/03/12 08:37:39;;;;;;;16.92;10.18;;;;;;;6.29;40.63;102165.00;4896649;29;20056;-82
2022/03/12 08:40:14;;;;;;;16.17;9.38;;;;;;;6.47;40.47;102163.50;4896905;29;20400;-81
2022/03/12 08:42:42;;;;;;;18.98;9.75;;;;;;;6.34;40.07;102167.91;4906709;29;20049;-82
2022/03/12 08:45:13;;;;;;;19.92;10.38;;;;;;;6.41;39.13;102165.19;4897588;29;20044;-82
2022/03/12 08:47:43;;;;;;;14.93;9.05;;;;;;;6.56;39.31;102159.50;4895469;29;20601;-82
2022/03/12 08:50:11;;;;;;;19.52;9.65;;;;;;;6.57;38.71;102174.78;4896953;29;20041;-82
2022/03/12 08:52:41;;;;;;;13.52;9.25;;;;;;;6.63;39.68;102164.91;4895584;29;20048;-83
2022/03/12 08:55:10;;;;;;;16.88;10.35;;;;;;;6.82;38.54;102177.63;4896021;29;20603;-83
2022/03/12 08:57:39;;;;;;;16.52;10.40;;;;;;;6.93;38.54;102169.81;4896473;29;20570;-83
2022/03/12 09:00:09;;;;;;;19.17;9.93;;;;;;;7.03;37.85;102172.91;4897409;29;20396;-84
2022/03/12 09:02:40;;;;;;;18.30;9.68;;;;;;;7.11;39.28;102169.97;4897747;29;20049;-84
2022/03/12 09:05:12;;;;;;;14.40;9.07;;;;;;;6.41;37.04;102182.31;4896978;29;20052;-71
2022/03/12 09:07:41;;;;;;;18.20;9.98;;;;;;;6.72;37.46;102185.41;4891976;29;20045;-71
2022/03/12 09:10:12;;;;;;;17.80;9.50;;;;;;;6.37;38.16;102183.81;4897396;29;20126;-70
2022/03/12 09:12:41;;;;;;;17.10;10.27;;;;;;;6.54;38.37;102176.03;4896214;29;20056;-70
2022/03/12 09:15:10;;;;;;;15.73;9.13;;;;;;;6.74;36.58;102179.75;4896334;29;20130;-70
2022/03/12 09:17:38;;;;;;;19.23;10.07;;;;;;;6.66;37.19;102178.94;4896790;29;20431;-70
2022/03/12 09:20:08;;;;;;;17.75;10.05;;;;;;;6.56;36.22;102190.25;4897720;29;20401;-71
2022/03/12 09:22:36;;;;;;;18.38;10.38;;;;;;;6.57;35.99;102177.50;4897445;29;20526;-71
2022/03/12 09:25:09;;;;;;;18.23;10.65;;;;;;;6.49;36.09;102183.97;4893722;29;20071;-71
2022/03/12 09:27:38;;;;;;;15.25;9.50;;;;;;;6.92;36.75;102182.59;4895852;29;20052;-71
2022/03/12 09:30:08;;;;;;;16.20;9.77;;;;;;;7.12;34.83;102181.66;4897352;29;20053;-71
2022/03/12 09:32:36;;;;;;;15.52;9.25;;;;;;;7.38;35.48;102188.03;4896474;29;20496;-70
2022/03/12 09:35:05;;;;;;;18.50;9.10;;;;;;;7.15;34.63;102178.53;4897519;29;20061;-71
2022/03/12 09:37:35;;;;;;;15.60;7.82;;;;;;;7.03;34.42;102185.72;4895626;29;20077;-70
2022/03/12 09:40:05;;;;;;;13.32;8.90;;;;;;;7.15;35.29;102175.81;4897379;29;20508;-71
2022/03/12 09:42:34;;;;;;;16.33;8.77;;;;;;;7.24;33.27;102181.84;4896220;29;20053;-70
2022/03/12 09:45:03;;;;;;;17.98;9.23;;;;;;;7.17;34.09;102184.59;4896885;29;20055;-71
2022/03/12 09:47:30;;;;;;;21.30;9.73;;;;;;;7.09;33.23;102188.38;4896818;29;20048;-71
2022/03/12 09:49:59;;;;;;;12.73;8.60;;;;;;;7.24;33.25;102169.03;4897039;29;20051;-71
2022/03/12 09:52:27;;;;;;;18.48;8.50;;;;;;;7.43;33.08;102171.84;4896941;29;20373;-71
2022/03/12 09:54:57;;;;;;;16.80;8.77;;;;;;;7.79;32.46;102158.63;4896597;29;20056;-71
2022/03/12 09:57:25;;;;;;;16.08;8.82;;;;;;;8.02;32.64;102174.34;4896639;29;20432;-71
2022/03/12 09:59:53;;;;;;;15.90;8.73;;;;;;;8.34;32.02;102171.53;4897261;29;20068;-70
2022/03/12 10:02:21;;;;;;;13.60;8.52;;;;;;;8.01;30.29;102169.97;4896931;29;20519;-70
2022/03/12 10:04:49;;;;;;;18.17;8.57;;;;;;;7.49;30.58;102170.16;4897846;29;20056;-70
2022/03/12 10:07:18;;;;;;;13.52;7.32;;;;;;;7.69;30.05;102170.03;4899866;29;20048;-71
2022/03/12 10:09:46;;;;;;;15.07;8.35;;;;;;;8.09;30.51;102165.28;4899842;29;20496;-71
2022/03/12 10:12:14;;;;;;;12.05;8.20;;;;;;;8.69;30.54;102166.56;4899306;29;20056;-72
2022/03/12 10:14:42;;;;;;;13.15;7.47;;;;;;;8.82;28.32;102171.88;4898765;29;20076;-70
2022/03/12 10:17:10;;;;;;;15.70;7.85;;;;;;;8.59;28.78;102157.03;4898569;29;20052;-70
2022/03/12 10:19:38;;;;;;;19.23;9.07;;;;;;;8.65;28.85;102162.66;4898765;29;20055;-71
2022/03/12 10:22:08;;;;;;;17.42;8.70;;;;;;;8.76;28.45;102145.50;4897715;29;20044;-70
2022/03/12 10:24:36;;;;;;;13.65;8.07;;;;;;;9.55;29.41;102160.19;4898277;29;20053;-70
2022/03/12 10:27:08;;;;;;;12.40;8.05;;;;;;;9.35;27.82;102160.47;4898439;29;20064;-69
2022/03/12 10:29:38;;;;;;;15.57;8.05;;;;;;;9.57;28.32;102165.41;4898441;29;20045;-70
2022/03/12 10:32:23;;;;;;;12.13;8.23;;;;;;;9.32;27.90;102156.31;4898482;29;20056;-70
2022/03/12 10:34:56;;;;;;;13.23;8.75;;;;;;;9.57;27.98;102159.94;4898017;29;20403;-71
2022/03/12 10:37:27;;;;;;;14.07;8.55;;;;;;;9.24;28.33;102167.56;4897058;29;20484;-71
2022/03/12 10:40:07;;;;;;;16.58;9.23;;;;;;;9.71;28.98;102155.09;4898329;29;20052;-70
2022/03/12 10:42:38;;;;;;;15.73;9.20;;;;;;;9.16;28.91;102165.16;4896493;29;20500;-71
2022/03/12 10:45:11;;;;;;;18.42;10.25;;;;;;;9.07;29.24;102160.03;4897621;29;20407;-73
2022/03/12 10:47:49;;;;;;;17.85;9.63;;;;;;;8.96;29.77;102163.53;4896273;29;20051;-72
2022/03/12 10:50:20;;;;;;;16.05;9.15;;;;;;;9.39;29.54;102158.94;4898193;29;20045;-71
2022/03/12 10:52:51;;;;;;;19.67;9.77;;;;;;;9.46;29.16;102148.75;4897770;29;20052;-69
2022/03/12 10:55:29;;;;;;;13.93;8.77;;;;;;;9.58;28.75;102154.22;4899478;29;20057;-72
2022/03/12 10:58:08;;;;;;;17.92;9.40;;;;;;;9.58;29.53;102143.28;4898812;29;20041;-70
2022/03/12 11:00:58;;;;;;;17.35;9.65;;;;;;;9.78;29.41;102142.16;4897831;29;20052;-70
2022/03/12 11:03:31;;;;;;;18.17;10.45;;;;;;;10.43;28.75;102139.56;4895510;29;20082;-70
2022/03/12 11:06:00;;;;;;;14.98;9.20;;;;;;;10.19;28.92;102145.00;4897915;29;20067;-70
2022/03/12 11:08:33;;;;;;;18.42;9.90;;;;;;;10.42;29.67;102132.38;4895738;29;20048;-79
2022/03/12 11:11:12;;;;;;;21.13;10.13;;;;;;;10.33;30.20;102130.00;4894860;29;20044;-78
2022/03/12 11:13:51;;;;;;;21.15;11.25;;;;;;;10.29;30.31;102120.63;4879867;29;20056;-78
2022/03/12 11:16:21;;;;;;;19.02;10.27;;;;;;;10.16;29.82;102129.09;4879904;29;20066;-77
2022/03/12 11:18:53;;;;;;;20.83;10.50;;;;;;;10.32;28.19;102119.31;4863749;29;20057;-77
2022/03/12 11:21:43;;;;;;;18.98;10.13;;;;;;;10.47;28.99;102127.88;4879469;29;20052;-77
2022/03/12 11:24:16;;;;;;;17.90;10.32;;;;;;;10.55;29.23;102114.91;4879530;29;20069;-76
2022/03/12 11:26:49;;;;;;;15.35;9.80;;;;;;;10.39;29.45;102111.81;4880409;29;20048;-78
2022/03/12 11:29:21;;;;;;;14.93;9.27;;;;;;;10.53;28.65;102104.19;4879554;29;20753;-79
2022/03/12 11:31:56;;;;;;;17.90;10.45;;;;;;;10.54;28.13;102107.75;4879012;29;20053;-79
2022/03/12 11:34:39;;;;;;;21.48;9.73;;;;;;;10.61;28.75;102108.47;4877956;29;20088;-82